createdAt,value
2018-11-07T00:01:49.724Z,97.40
2018-11-07T00:04:18.204Z,97.40
2018-11-07T00:06:46.639Z,97.40
2018-11-07T00:09:15.077Z,97.40
2018-11-07T00:11:43.416Z,97.40
2018-11-07T00:14:12.008Z,97.50
2018-11-07T00:16:40.359Z,97.50
2018-11-07T00:19:08.757Z,97.40
2018-11-07T00:21:37.174Z,97.40
2018-11-07T00:24:05.566Z,97.40
2018-11-07T00:26:33.980Z,97.40
2018-11-07T00:29:02.359Z,97.40
2018-11-07T00:31:30.776Z,97.40
2018-11-07T00:33:59.709Z,97.40
2018-11-07T00:36:28.067Z,97.30
2018-11-07T00:38:56.493Z,97.30
2018-11-07T00:41:24.944Z,97.30
2018-11-07T00:43:53.396Z,97.30
2018-11-07T00:46:21.816Z,97.30
2018-11-07T00:48:50.262Z,97.20
2018-11-07T00:51:18.725Z,97.10
2018-11-07T00:53:47.205Z,97.10
2018-11-07T00:56:15.684Z,97.10
2018-11-07T00:58:44.180Z,97.10
2018-11-07T01:01:13.209Z,97.10
2018-11-07T01:03:41.594Z,97.20
2018-11-07T01:06:09.991Z,97.30
2018-11-07T01:08:39.005Z,97.20
2018-11-07T01:11:07.566Z,97.30
2018-11-07T01:13:36.265Z,97.40
2018-11-07T01:16:04.677Z,97.50
2018-11-07T01:18:33.047Z,97.60
2018-11-07T01:21:01.424Z,97.60
2018-11-07T01:23:29.827Z,97.60
2018-11-07T01:25:58.187Z,97.60
2018-11-07T01:28:26.638Z,97.60
2018-11-07T01:30:55.124Z,97.60
2018-11-07T01:33:23.504Z,97.60
2018-11-07T01:35:51.915Z,97.60
2018-11-07T01:38:20.261Z,97.60
2018-11-07T01:40:48.584Z,97.60
2018-11-07T01:43:17.007Z,97.60
2018-11-07T01:45:45.386Z,97.60
2018-11-07T01:48:13.891Z,97.50
2018-11-07T01:50:42.336Z,97.60
2018-11-07T01:53:10.775Z,97.70
2018-11-07T01:55:39.108Z,97.80
2018-11-07T01:58:07.655Z,97.90
2018-11-07T02:00:36.109Z,98.30
2018-11-07T02:03:04.647Z,98.00
2018-11-07T02:05:33.115Z,98.00
2018-11-07T02:08:01.487Z,98.00
2018-11-07T02:10:29.932Z,98.10
2018-11-07T02:12:58.374Z,98.20
2018-11-07T02:15:26.840Z,98.20
2018-11-07T02:17:55.244Z,98.30
2018-11-07T02:20:23.649Z,98.70
2018-11-07T02:22:52.022Z,98.40
2018-11-07T02:25:21.357Z,98.50
2018-11-07T02:27:49.781Z,98.50
2018-11-07T02:30:18.344Z,98.50
2018-11-07T02:32:46.782Z,98.70
2018-11-07T02:35:15.295Z,98.80
2018-11-07T02:37:43.729Z,98.80
2018-11-07T02:40:12.176Z,98.90
2018-11-07T02:42:40.548Z,99.10
2018-11-07T02:45:09.588Z,99.10
2018-11-07T02:47:38.212Z,99.10
2018-11-07T02:50:07.693Z,99.10
2018-11-07T02:52:36.176Z,99.20
2018-11-07T02:55:04.830Z,99.10
2018-11-07T02:57:33.248Z,99.20
2018-11-07T03:00:01.678Z,99.20
2018-11-07T03:02:30.128Z,99.30
2018-11-07T03:04:58.453Z,99.30
2018-11-07T03:07:26.824Z,99.40
2018-11-07T03:09:56.075Z,99.70
2018-11-07T03:12:24.517Z,99.40
2018-11-07T03:14:52.950Z,99.30
2018-11-07T03:17:21.828Z,99.30
2018-11-07T03:19:50.392Z,99.30
2018-11-07T03:22:18.743Z,99.30
2018-11-07T03:24:47.168Z,99.30
2018-11-07T03:27:15.657Z,99.30
2018-11-07T03:29:44.137Z,99.30
2018-11-07T03:32:12.583Z,99.20
2018-11-07T03:34:41.035Z,99.20
2018-11-07T03:37:09.520Z,99.10
2018-11-07T03:39:37.919Z,99.00
2018-11-07T03:42:06.372Z,99.00
2018-11-07T03:44:34.805Z,99.10
2018-11-07T03:47:03.814Z,99.30
2018-11-07T03:49:32.204Z,99.70
2018-11-07T03:52:00.615Z,99.40
2018-11-07T03:54:29.072Z,99.60
2018-11-07T03:56:57.468Z,99.40
2018-11-07T03:59:25.869Z,99.50
2018-11-07T04:01:54.729Z,99.60
2018-11-07T04:04:23.180Z,99.60
2018-11-07T04:06:51.513Z,99.60
2018-11-07T04:09:19.872Z,99.60
2018-11-07T04:11:48.468Z,99.70
2018-11-07T04:14:16.831Z,99.70
2018-11-07T04:16:45.327Z,99.80
2018-11-07T04:19:13.792Z,99.80
2018-11-07T04:21:42.261Z,99.80
2018-11-07T04:24:10.789Z,99.70
2018-11-07T04:26:39.582Z,99.70
2018-11-07T04:29:08.200Z,99.70
2018-11-07T04:31:36.620Z,99.70
2018-11-07T04:34:05.093Z,99.70
2018-11-07T04:36:33.490Z,99.70
2018-11-07T04:39:02.029Z,99.70
2018-11-07T04:41:30.457Z,99.70
2018-11-07T04:43:58.880Z,99.70
2018-11-07T04:46:27.348Z,99.70
2018-11-07T04:48:55.793Z,99.70
2018-11-07T04:51:24.248Z,99.60
2018-11-07T04:53:52.684Z,99.60
2018-11-07T04:56:21.308Z,99.60
2018-11-07T04:58:49.748Z,99.60
2018-11-07T05:01:18.116Z,99.70
2018-11-07T05:03:46.489Z,99.70
2018-11-07T05:06:15.000Z,99.70
2018-11-07T05:08:43.582Z,99.90
2018-11-07T05:11:11.920Z,99.90
2018-11-07T05:13:40.388Z,99.90
2018-11-07T05:16:10.908Z,99.90
2018-11-07T05:18:39.971Z,99.90
2018-11-07T05:21:08.388Z,99.90
2018-11-07T05:23:36.841Z,99.90
2018-11-07T05:26:05.472Z,99.90
2018-11-07T05:28:33.827Z,99.90
2018-11-07T05:31:02.212Z,99.90
2018-11-07T05:33:30.664Z,99.90
2018-11-07T05:35:59.092Z,99.90
2018-11-07T05:38:27.476Z,99.90
2018-11-07T05:40:55.898Z,99.90
2018-11-07T05:43:24.283Z,99.90
2018-11-07T05:45:52.972Z,99.90
2018-11-07T05:48:21.397Z,99.90
2018-11-07T05:50:49.837Z,99.90
2018-11-07T05:53:19.048Z,99.90
2018-11-07T05:55:47.472Z,99.90
2018-11-07T05:58:15.960Z,99.90
2018-11-07T06:00:44.492Z,99.90
2018-11-07T06:03:13.050Z,99.90
2018-11-07T06:05:41.493Z,99.90
2018-11-07T06:08:09.912Z,99.90
2018-11-07T06:10:38.403Z,99.90
2018-11-07T06:13:07.166Z,99.90
2018-11-07T06:15:35.569Z,99.90
2018-11-07T06:18:04.021Z,99.90
2018-11-07T06:20:32.358Z,99.90
2018-11-07T06:23:00.828Z,99.90
2018-11-07T06:25:29.269Z,99.90
2018-11-07T06:27:57.658Z,99.90
2018-11-07T06:30:26.049Z,99.90
2018-11-07T06:32:54.455Z,99.90
2018-11-07T06:35:22.833Z,99.90
2018-11-07T06:37:51.292Z,99.90
2018-11-07T06:40:19.796Z,99.90
2018-11-07T06:42:48.170Z,99.90
2018-11-07T06:45:17.161Z,99.90
2018-11-07T06:47:45.588Z,99.90
2018-11-07T06:50:15.099Z,99.90
2018-11-07T06:52:43.981Z,99.90
2018-11-07T06:55:12.995Z,99.90
2018-11-07T06:57:41.400Z,99.90
2018-11-07T07:00:13.196Z,99.90
2018-11-07T07:02:41.988Z,99.90
2018-11-07T07:05:10.409Z,99.90
2018-11-07T07:07:39.053Z,99.90
2018-11-07T07:10:12.245Z,99.90
2018-11-07T07:12:40.951Z,99.90
2018-11-07T07:15:11.552Z,99.90
2018-11-07T07:17:40.153Z,99.90
2018-11-07T07:20:10.884Z,99.80
2018-11-07T07:22:39.752Z,99.60
2018-11-07T07:25:09.030Z,99.30
2018-11-07T07:27:37.440Z,98.70
2018-11-07T07:30:08.498Z,98.70
2018-11-07T07:32:36.877Z,98.70
2018-11-07T07:35:05.585Z,98.60
2018-11-07T07:37:34.680Z,98.60
2018-11-07T07:40:03.724Z,98.60
2018-11-07T07:42:32.271Z,98.70
2018-11-07T07:45:00.681Z,98.60
2018-11-07T07:47:29.367Z,98.60
2018-11-07T07:49:58.434Z,98.60
2018-11-07T07:52:26.885Z,98.50
2018-11-07T07:54:55.252Z,98.70
2018-11-07T07:57:23.644Z,98.70
2018-11-07T07:59:52.121Z,98.80
2018-11-07T08:02:20.547Z,99.10
2018-11-07T08:04:48.948Z,99.00
2018-11-07T08:07:17.396Z,98.90
2018-11-07T08:09:45.841Z,98.50
2018-11-07T08:12:14.324Z,98.20
2018-11-07T08:14:42.697Z,98.10
2018-11-07T08:17:11.140Z,98.10
2018-11-07T08:19:39.474Z,98.00
2018-11-07T08:22:07.890Z,97.60
2018-11-07T08:24:36.312Z,97.30
2018-11-07T08:27:04.960Z,97.10
2018-11-07T08:29:33.371Z,97.20
2018-11-07T08:32:01.813Z,97.20
2018-11-07T08:34:30.188Z,97.20
2018-11-07T08:36:59.317Z,97.10
2018-11-07T08:39:27.700Z,97.10
2018-11-07T08:41:56.138Z,97.10
2018-11-07T08:44:24.548Z,97.00
2018-11-07T08:46:53.268Z,97.20
2018-11-07T08:49:21.673Z,97.20
2018-11-07T08:51:50.109Z,96.90
2018-11-07T08:54:18.509Z,97.30
2018-11-07T08:56:46.900Z,97.00
2018-11-07T08:59:15.326Z,96.90
2018-11-07T09:01:43.765Z,96.90
2018-11-07T09:11:09.231Z,96.60
2018-11-07T09:13:37.391Z,96.60
2018-11-07T09:16:05.547Z,96.70
2018-11-07T09:18:33.734Z,96.90
2018-11-07T09:21:01.904Z,96.50
2018-11-07T09:23:30.067Z,96.30
2018-11-07T09:25:58.260Z,96.70
2018-11-07T09:28:26.438Z,96.50
2018-11-07T09:30:54.620Z,96.30
2018-11-07T09:33:22.827Z,96.40
2018-11-07T09:35:50.986Z,96.00
2018-11-07T09:38:19.151Z,95.40
2018-11-07T09:40:47.318Z,95.20
2018-11-07T09:43:15.503Z,95.00
2018-11-07T09:45:43.678Z,94.90
2018-11-07T09:48:12.247Z,94.70
2018-11-07T09:50:40.405Z,94.60
2018-11-07T09:53:08.583Z,94.50
2018-11-07T09:55:36.747Z,94.50
2018-11-07T09:58:05.994Z,94.50
2018-11-07T10:00:34.470Z,94.60
2018-11-07T10:03:02.686Z,94.30
2018-11-07T10:05:30.899Z,94.50
2018-11-07T10:07:59.026Z,94.40
2018-11-07T10:10:27.219Z,94.70
2018-11-07T10:12:55.394Z,94.80
2018-11-07T10:15:23.567Z,95.00
2018-11-07T10:17:51.746Z,95.10
2018-11-07T10:20:22.310Z,95.10
2018-11-07T10:22:50.655Z,95.30
2018-11-07T10:25:19.062Z,95.20
2018-11-07T10:27:47.531Z,95.30
2018-11-07T10:30:17.769Z,95.20
2018-11-07T10:32:46.904Z,95.10
2018-11-07T10:35:15.342Z,94.90
2018-11-07T10:37:43.704Z,95.00
2018-11-07T10:40:16.395Z,95.00
2018-11-07T10:42:45.274Z,95.00
2018-11-07T10:45:13.963Z,95.00
2018-11-07T10:47:42.857Z,94.80
2018-11-07T10:50:12.653Z,94.60
2018-11-07T10:52:41.898Z,94.90
2018-11-07T10:55:10.806Z,95.00
2018-11-07T10:57:38.970Z,95.00
2018-11-07T11:00:15.310Z,95.00
2018-11-07T11:03:47.627Z,94.80
2018-11-07T11:06:15.798Z,94.80
2018-11-07T11:08:43.995Z,94.70
2018-11-07T11:11:12.213Z,94.70
2018-11-07T11:13:40.578Z,94.60
2018-11-07T11:16:08.750Z,94.60
2018-11-07T11:18:36.943Z,94.50
2018-11-07T11:21:05.285Z,94.70
2018-11-07T11:23:33.478Z,94.90
2018-11-07T11:26:01.663Z,94.60
2018-11-07T11:28:29.852Z,94.70
2018-11-07T11:30:58.035Z,94.60
2018-11-07T11:33:26.214Z,94.70
2018-11-07T11:35:54.379Z,94.60
2018-11-07T11:38:22.564Z,94.50
2018-11-07T11:40:50.751Z,94.60
2018-11-07T11:43:18.894Z,94.50
2018-11-07T11:45:47.554Z,94.20
2018-11-07T11:48:17.591Z,93.80
2018-11-07T11:50:45.742Z,93.80
2018-11-07T11:53:13.926Z,93.40
2018-11-07T11:55:42.087Z,93.20
2018-11-07T11:58:10.283Z,92.80
2018-11-07T12:00:38.454Z,92.70
2018-11-07T12:03:06.639Z,92.10
2018-11-07T12:05:35.019Z,91.40
2018-11-07T12:08:03.171Z,90.70
2018-11-07T12:10:31.373Z,90.00
2018-11-07T12:12:59.539Z,89.20
2018-11-07T12:15:28.331Z,89.00
2018-11-07T12:17:56.879Z,87.80
2018-11-07T12:20:25.056Z,84.10
2018-11-07T12:22:53.221Z,82.30
2018-11-07T12:25:22.064Z,75.60
2018-11-07T12:27:50.316Z,74.20
2018-11-07T12:30:20.072Z,73.20
2018-11-07T12:32:49.273Z,74.40
2018-11-07T12:35:18.147Z,74.80
2018-11-07T12:37:46.447Z,76.80
2018-11-07T12:40:15.515Z,79.00
2018-11-07T12:42:43.750Z,79.40
2018-11-07T12:45:13.067Z,80.10
2018-11-07T12:47:41.523Z,80.80
2018-11-07T12:50:12.706Z,82.00
2018-11-07T12:52:40.695Z,82.10
2018-11-07T12:55:10.212Z,81.10
2018-11-07T12:57:38.724Z,81.10
2018-11-07T13:00:10.359Z,81.70
2018-11-07T13:02:38.714Z,82.10
2018-11-07T13:05:07.742Z,83.50
2018-11-07T13:07:35.944Z,83.80
2018-11-07T13:10:04.516Z,84.00
2018-11-07T13:12:32.668Z,84.50
2018-11-07T13:15:00.847Z,84.40
2018-11-07T13:17:29.030Z,83.80
2018-11-07T13:19:57.558Z,82.70
2018-11-07T13:22:25.771Z,81.90
2018-11-07T13:24:53.915Z,81.20
2018-11-07T13:27:22.079Z,81.00
2018-11-07T13:29:50.255Z,80.90
2018-11-07T13:32:18.408Z,81.00
2018-11-07T13:34:46.628Z,81.80
2018-11-07T13:37:15.042Z,81.30
2018-11-07T13:39:43.349Z,80.70
2018-11-07T13:42:11.539Z,80.80
2018-11-07T13:44:40.370Z,80.80
2018-11-07T13:47:08.524Z,81.60
2018-11-07T13:49:36.671Z,82.50
2018-11-07T13:52:05.487Z,82.90
2018-11-07T13:54:33.667Z,83.30
2018-11-07T13:57:01.874Z,83.50
2018-11-07T13:59:30.067Z,83.70
2018-11-07T14:01:58.263Z,84.40
2018-11-07T14:04:26.491Z,85.00
2018-11-07T14:06:54.656Z,86.30
2018-11-07T14:09:22.850Z,86.50
2018-11-07T14:11:51.035Z,86.90
2018-11-07T14:14:19.215Z,87.90
2018-11-07T14:16:47.449Z,87.90
2018-11-07T14:19:15.779Z,89.10
2018-11-07T14:21:44.015Z,88.90
2018-11-07T14:24:12.211Z,89.70
2018-11-07T14:26:40.362Z,90.00
2018-11-07T14:29:08.614Z,90.00
2018-11-07T14:31:36.822Z,90.10
2018-11-07T14:34:06.003Z,90.30
2018-11-07T14:36:34.359Z,90.60
2018-11-07T14:39:02.571Z,90.70
2018-11-07T14:41:30.718Z,91.20
2018-11-07T14:43:58.933Z,91.50
2018-11-07T14:46:27.108Z,91.50
2018-11-07T14:48:55.275Z,91.70
2018-11-07T14:51:23.434Z,91.90
2018-11-07T14:53:51.610Z,91.90
2018-11-07T14:56:19.795Z,92.00
2018-11-07T14:58:48.160Z,92.20
2018-11-07T15:01:16.671Z,92.20
2018-11-07T15:03:44.931Z,92.40
2018-11-07T15:06:13.233Z,92.60
2018-11-07T15:08:41.346Z,92.70
2018-11-07T15:11:09.557Z,92.80
2018-11-07T15:13:37.682Z,93.10
2018-11-07T15:16:05.953Z,93.20
2018-11-07T15:18:34.223Z,93.30
2018-11-07T15:21:02.392Z,93.60
2018-11-07T15:23:30.646Z,93.70
2018-11-07T15:25:58.865Z,94.00
2018-11-07T15:28:27.048Z,94.00
2018-11-07T15:30:55.275Z,94.00
2018-11-07T15:33:23.633Z,93.90
2018-11-07T15:35:52.233Z,93.90
2018-11-07T15:38:20.393Z,94.00
2018-11-07T15:40:48.671Z,94.10
2018-11-07T15:43:17.419Z,94.20
2018-11-07T15:45:45.606Z,94.20
2018-11-07T15:48:13.784Z,94.20
2018-11-07T15:50:47.374Z,94.30
2018-11-07T15:53:15.583Z,94.50
2018-11-07T15:55:43.844Z,94.50
2018-11-07T15:58:12.960Z,94.90
2018-11-07T16:00:41.191Z,95.00
2018-11-07T16:03:09.355Z,94.80
2018-11-07T16:05:37.588Z,94.80
2018-11-07T16:08:06.058Z,94.90
2018-11-07T16:10:34.256Z,95.10
2018-11-07T16:13:02.592Z,94.90
2018-11-07T16:15:30.805Z,95.00
2018-11-07T16:17:59.530Z,95.30
2018-11-07T16:20:27.744Z,95.30
2018-11-07T16:22:55.994Z,95.50
2018-11-07T16:25:24.148Z,95.50
2018-11-07T16:27:52.390Z,95.50
2018-11-07T16:30:21.027Z,95.40
2018-11-07T16:32:49.227Z,95.40
2018-11-07T16:35:17.460Z,95.30
2018-11-07T16:37:45.683Z,95.20
2018-11-07T16:40:15.190Z,95.10
2018-11-07T16:42:43.915Z,95.10
2018-11-07T16:45:13.212Z,95.00
2018-11-07T16:47:41.592Z,95.10
2018-11-07T16:50:10.840Z,94.90
2018-11-07T16:52:39.305Z,94.80
2018-11-07T16:55:07.562Z,94.90
2018-11-07T16:57:36.241Z,94.70
2018-11-07T17:00:06.926Z,94.80
2018-11-07T17:02:35.072Z,95.10
2018-11-07T17:05:06.474Z,95.10
2018-11-07T17:07:34.607Z,95.20
2018-11-07T17:10:02.782Z,95.00
2018-11-07T17:12:30.994Z,95.00
2018-11-07T17:14:59.867Z,94.80
2018-11-07T17:17:28.028Z,94.70
2018-11-07T17:19:56.219Z,94.60
2018-11-07T17:22:24.383Z,94.80
2018-11-07T17:24:52.558Z,95.00
2018-11-07T17:27:21.853Z,95.20
2018-11-07T17:29:50.064Z,95.40
2018-11-07T17:32:18.576Z,95.70
2018-11-07T17:34:46.983Z,96.30
2018-11-07T17:37:15.375Z,96.30
2018-11-07T17:39:43.520Z,96.50
2018-11-07T17:42:11.675Z,96.40
2018-11-07T17:44:40.138Z,96.30
2018-11-07T17:47:08.308Z,96.10
2018-11-07T17:49:36.763Z,95.80
2018-11-07T17:52:05.455Z,95.80
2018-11-07T17:54:33.625Z,95.90
2018-11-07T17:57:01.835Z,95.70
2018-11-07T17:59:30.011Z,95.70
2018-11-07T18:01:58.221Z,95.60
2018-11-07T18:04:26.351Z,95.60
2018-11-07T18:06:54.535Z,95.60
2018-11-07T18:09:22.726Z,95.80
2018-11-07T18:11:50.912Z,95.70
2018-11-07T18:14:19.153Z,95.80
2018-11-07T18:16:47.342Z,95.70
2018-11-07T18:19:15.555Z,95.80
2018-11-07T18:21:43.709Z,95.80
2018-11-07T18:24:11.995Z,95.80
2018-11-07T18:26:40.807Z,95.80
2018-11-07T18:29:09.148Z,95.90
2018-11-07T18:31:38.383Z,95.80
2018-11-07T18:34:06.611Z,95.80
2018-11-07T18:36:34.791Z,95.70
2018-11-07T18:39:04.137Z,95.70
2018-11-07T18:41:32.319Z,95.80
2018-11-07T18:44:00.551Z,95.80
2018-11-07T18:46:28.740Z,95.70
2018-11-07T18:48:56.923Z,95.60
2018-11-07T18:51:25.183Z,95.60
2018-11-07T18:53:53.635Z,95.50
2018-11-07T18:56:21.818Z,95.40
2018-11-07T18:58:50.812Z,95.50
2018-11-07T19:01:18.918Z,95.50
2018-11-07T19:03:47.117Z,95.50
2018-11-07T19:06:15.307Z,95.50
2018-11-07T19:08:43.546Z,95.60
2018-11-07T19:11:11.740Z,95.80
2018-11-07T19:13:39.895Z,95.80
2018-11-07T19:16:08.070Z,95.90
2018-11-07T19:18:36.239Z,95.80
2018-11-07T19:21:04.743Z,95.80
2018-11-07T19:23:33.811Z,95.70
2018-11-07T19:26:02.020Z,95.20
2018-11-07T19:28:30.207Z,94.60
2018-11-07T19:30:58.423Z,94.90
2018-11-07T19:33:26.716Z,95.10
2018-11-07T19:35:54.894Z,95.00
2018-11-07T19:38:23.083Z,95.00
2018-11-07T19:40:51.258Z,94.90
2018-11-07T19:43:19.450Z,94.80
2018-11-07T19:45:47.769Z,95.20
2018-11-07T19:48:16.727Z,95.30
2018-11-07T19:50:45.152Z,95.60
2018-11-07T19:53:13.560Z,95.70
2018-11-07T19:55:42.395Z,95.90
2018-11-07T19:58:10.855Z,95.90
2018-11-07T20:00:50.515Z,95.70
2018-11-07T20:03:18.821Z,95.50
2018-11-07T20:05:47.320Z,95.30
2018-11-07T20:08:15.744Z,95.30
2018-11-07T20:10:44.264Z,95.20
2018-11-07T20:13:13.692Z,95.30
2018-11-07T20:15:42.132Z,95.60
2018-11-07T20:18:10.560Z,95.90
2018-11-07T20:20:38.972Z,96.20
2018-11-07T20:23:08.164Z,96.10
2018-11-07T20:25:36.503Z,95.90
2018-11-07T20:28:05.548Z,95.40
2018-11-07T20:30:34.533Z,95.40
2018-11-07T20:33:02.993Z,95.40
2018-11-07T20:35:31.540Z,95.70
2018-11-07T20:37:59.948Z,95.90
2018-11-07T20:40:28.656Z,96.00
2018-11-07T20:42:57.259Z,96.30
2018-11-07T20:45:25.724Z,96.50
2018-11-07T20:47:56.272Z,96.50
2018-11-07T20:50:24.698Z,96.60
2018-11-07T20:52:53.208Z,96.90
2018-11-07T20:55:21.653Z,96.70
2018-11-07T20:57:50.057Z,96.80
2018-11-07T21:00:21.016Z,97.00
2018-11-07T21:02:50.645Z,97.00
2018-11-07T21:05:19.043Z,97.10
2018-11-07T21:07:47.487Z,96.90
2018-11-07T21:10:19.231Z,96.70
2018-11-07T21:12:48.257Z,96.30
2018-11-07T21:15:17.608Z,96.40
2018-11-07T21:17:46.148Z,96.60
2018-11-07T21:20:14.616Z,96.90
2018-11-07T21:22:43.968Z,97.10
2018-11-07T21:25:12.664Z,97.30
2018-11-07T21:27:41.373Z,97.30
2018-11-07T21:30:12.810Z,97.50
2018-11-07T21:32:41.552Z,97.50
2018-11-07T21:35:10.606Z,97.40
2018-11-07T21:37:38.973Z,97.30
2018-11-07T21:40:09.053Z,97.40
2018-11-07T21:42:37.428Z,97.50
2018-11-07T21:45:08.187Z,97.40
2018-11-07T21:47:37.443Z,97.10
2018-11-07T21:50:07.140Z,97.10
2018-11-07T21:52:35.555Z,97.60
2018-11-07T21:55:04.323Z,97.80
2018-11-07T21:57:32.682Z,98.00
2018-11-07T22:00:01.064Z,98.00
2018-11-07T22:02:31.810Z,97.90
2018-11-07T22:05:10.735Z,98.30
2018-11-07T22:07:39.436Z,98.30
2018-11-07T22:10:08.788Z,97.90
2018-11-07T22:12:37.355Z,98.00
2018-11-07T22:15:06.296Z,98.10
2018-11-07T22:17:34.736Z,98.10
2018-11-07T22:20:03.132Z,98.10
2018-11-07T22:22:31.608Z,98.00
2018-11-07T22:24:59.988Z,98.00
2018-11-07T22:27:28.479Z,98.00
2018-11-07T22:29:56.894Z,98.00
2018-11-07T22:32:25.300Z,98.10
2018-11-07T22:34:53.696Z,98.10
2018-11-07T22:37:22.164Z,98.10
2018-11-07T22:39:50.646Z,97.90
2018-11-07T22:42:19.004Z,97.70
2018-11-07T22:44:47.450Z,97.70
2018-11-07T22:47:15.783Z,97.60
2018-11-07T22:49:44.289Z,97.60
2018-11-07T22:52:12.746Z,97.80
2018-11-07T22:54:41.088Z,97.80
2018-11-07T22:57:09.493Z,97.80
2018-11-07T22:59:37.816Z,97.90
2018-11-07T23:02:06.264Z,98.00
2018-11-07T23:04:34.626Z,97.90
2018-11-07T23:07:03.069Z,98.00
2018-11-07T23:09:31.489Z,98.30
2018-11-07T23:11:59.962Z,98.40
2018-11-07T23:14:28.401Z,98.70
2018-11-07T23:16:56.824Z,98.90
2018-11-07T23:19:25.240Z,98.80
2018-11-07T23:21:53.693Z,99.20
2018-11-07T23:24:22.158Z,99.40
2018-11-07T23:26:50.600Z,99.60
2018-11-07T23:29:19.901Z,99.70
2018-11-07T23:31:48.260Z,99.80
2018-11-07T23:34:16.716Z,99.80
2018-11-07T23:36:45.204Z,99.90
2018-11-07T23:39:13.620Z,99.90
2018-11-07T23:41:42.424Z,99.80
2018-11-07T23:44:10.845Z,99.80
2018-11-07T23:46:39.233Z,99.80
2018-11-07T23:49:07.641Z,99.80
2018-11-07T23:51:37.580Z,99.80
2018-11-07T23:54:06.462Z,99.80
2018-11-07T23:56:34.840Z,99.80
2018-11-07T23:59:03.312Z,99.70
